Time;durP1;ratioP1;P1;durP2;ratioP2;P2;SDS_P1;SDS_P2;PMS_P1;PMS_P2;Temp;Humidity;BMP_temperature;BMP_pressure;BME280_temperature;BME280_humidity;BME280_pressure;Samples;Min_cycle;Max_cycle;Signal;HPM_P1;HPM_P2
2023/10/31 00:02:07;;;;;;;0.00;0.00;;;;;;;18.84;57.07;99736.38;5032687;28;20476;-67
2023/10/31 00:04:33;;;;;;;0.00;0.00;;;;;;;18.66;57.59;99728.63;5052445;28;20032;-67
2023/10/31 00:06:58;;;;;;;0.00;0.00;;;;;;;18.81;57.56;99732.97;5051756;28;20013;-67
2023/10/31 00:09:24;;;;;;;0.00;0.00;;;;;;;18.33;60.29;99736.78;5033186;28;20032;-67
2023/10/31 00:11:49;;;;;;;0.00;0.00;;;;;;;17.45;63.10;99732.13;5033907;28;20017;-67
2023/10/31 00:14:15;;;;;;;0.00;0.00;;;;;;;18.00;59.78;99735.19;5033809;28;20025;-67
2023/10/31 00:16:40;;;;;;;0.30;0.30;;;;;;;17.77;61.88;99732.91;5033591;28;20639;-67
2023/10/31 00:19:06;;;;;;;0.00;0.00;;;;;;;19.05;58.28;99724.47;5050860;28;20032;-67
2023/10/31 00:21:31;;;;;;;0.00;0.00;;;;;;;18.14;60.42;99733.44;5033335;28;20063;-67
2023/10/31 00:23:56;;;;;;;0.00;0.00;;;;;;;18.43;59.60;99730.84;5050363;28;20420;-67
2023/10/31 00:26:22;;;;;;;0.00;0.00;;;;;;;18.28;60.52;99734.44;5033724;28;20009;-67
2023/10/31 00:28:47;;;;;;;0.10;0.10;;;;;;;18.56;60.73;99732.75;5051970;28;20020;-67
2023/10/31 00:31:14;;;;;;;0.30;0.30;;;;;;;18.64;59.34;99730.50;5031518;28;20361;-67
2023/10/31 00:33:39;;;;;;;2.00;0.77;;;;;;;18.25;61.04;99737.25;5051659;28;20025;-67
2023/10/31 00:36:05;;;;;;;0.00;0.00;;;;;;;18.86;59.44;99734.47;5032566;28;20021;-68
2023/10/31 00:38:30;;;;;;;0.00;0.00;;;;;;;18.75;58.97;99733.38;5033370;28;20021;-68
2023/10/31 00:40:55;;;;;;;0.00;0.00;;;;;;;19.57;56.62;99740.63;5032709;28;20033;-67
2023/10/31 00:43:21;;;;;;;1.30;1.00;;;;;;;19.32;56.92;99737.75;5033905;28;20024;-67
2023/10/31 00:45:46;;;;;;;0.00;0.00;;;;;;;18.85;58.49;99744.22;5033249;28;20020;-68
2023/10/31 00:48:12;;;;;;;0.20;0.20;;;;;;;17.56;64.57;99747.38;5033182;28;20029;-68
2023/10/31 00:50:37;;;;;;;0.00;0.00;;;;;;;17.44;64.51;99749.75;5033156;28;20021;-67
2023/10/31 00:53:03;;;;;;;1.60;1.50;;;;;;;17.52;64.70;99751.13;5032072;28;20029;-67
2023/10/31 00:55:28;;;;;;;0.00;0.00;;;;;;;18.69;61.55;99756.69;5051168;28;20442;-67
2023/10/31 00:57:53;;;;;;;0.00;0.00;;;;;;;18.40;60.63;99754.03;5032797;28;20024;-67
2023/10/31 01:00:19;;;;;;;0.00;0.00;;;;;;;18.28;61.03;99755.59;5033033;28;20025;-66
2023/10/31 01:02:44;;;;;;;0.00;0.00;;;;;;;19.03;58.46;99747.56;5032967;28;20025;-67
2023/10/31 01:05:11;;;;;;;0.00;0.00;;;;;;;18.04;64.24;99758.75;5028388;28;20056;-66
2023/10/31 01:07:36;;;;;;;1.60;0.43;;;;;;;18.20;62.34;99757.84;5030230;28;20025;-66
2023/10/31 01:10:03;;;;;;;0.17;0.17;;;;;;;18.28;62.97;99772.31;5013373;28;20021;-67
2023/10/31 01:12:28;;;;;;;0.00;0.00;;;;;;;18.24;62.49;99778.72;5026130;28;20029;-67
2023/10/31 01:14:57;;;;;;;0.00;0.00;;;;;;;18.28;62.89;99776.75;5030893;28;20404;-66
2023/10/31 01:17:22;;;;;;;0.00;0.00;;;;;;;18.68;61.17;99784.94;5032771;28;20123;-68
2023/10/31 01:19:48;;;;;;;0.00;0.00;;;;;;;18.30;61.12;99780.16;5032798;28;20591;-67
2023/10/31 01:22:13;;;;;;;0.00;0.00;;;;;;;17.96;63.82;99779.47;5032236;28;20241;-66
2023/10/31 01:24:38;;;;;;;0.10;0.10;;;;;;;17.83;65.03;99781.09;5050878;28;20163;-67
2023/10/31 01:27:04;;;;;;;0.00;0.00;;;;;;;17.77;64.65;99777.00;5031414;28;20025;-67
2023/10/31 01:29:29;;;;;;;3.07;0.93;;;;;;;18.18;63.10;99775.59;5032464;28;20495;-68
2023/10/31 01:31:56;;;;;;;0.00;0.00;;;;;;;18.64;61.72;99783.44;5031656;28;20114;-67
2023/10/31 01:34:21;;;;;;;0.00;0.00;;;;;;;18.36;61.80;99778.94;5032655;28;20386;-68
2023/10/31 01:36:46;;;;;;;0.00;0.00;;;;;;;17.01;68.11;99793.47;5031722;28;20032;-67
2023/10/31 01:39:12;;;;;;;0.00;0.00;;;;;;;18.29;64.47;99786.41;5032548;28;20032;-68
2023/10/31 01:41:37;;;;;;;0.00;0.00;;;;;;;18.98;60.75;99786.72;5032408;28;20028;-67
2023/10/31 01:44:03;;;;;;;0.37;0.37;;;;;;;18.30;62.67;99790.75;5032746;28;20028;-68
2023/10/31 01:46:31;;;;;;;0.00;0.00;;;;;;;17.59;64.82;99807.97;5031859;28;20021;-68
2023/10/31 01:48:56;;;;;;;0.30;0.30;;;;;;;17.94;63.72;99810.44;5031598;28;20366;-67
2023/10/31 01:51:22;;;;;;;0.10;0.10;;;;;;;18.50;63.29;99812.53;5032255;28;20106;-67
2023/10/31 01:53:47;;;;;;;0.00;0.00;;;;;;;18.01;63.55;99809.16;5032060;28;20032;-68
2023/10/31 01:56:13;;;;;;;0.00;0.00;;;;;;;16.87;68.17;99820.56;5030670;28;20029;-68
2023/10/31 01:58:39;;;;;;;0.50;0.40;;;;;;;17.57;65.68;99812.47;5050457;28;20389;-67
2023/10/31 02:01:05;;;;;;;0.00;0.00;;;;;;;18.18;61.50;99817.91;5030611;28;20025;-67
2023/10/31 02:03:31;;;;;;;0.13;0.13;;;;;;;18.82;60.70;99819.38;5032681;28;20031;-67
2023/10/31 02:05:57;;;;;;;0.00;0.00;;;;;;;18.20;61.26;99821.31;5030173;28;20025;-68
2023/10/31 02:08:24;;;;;;;0.00;0.00;;;;;;;17.81;62.87;99820.81;5031610;28;20082;-67
2023/10/31 02:10:49;;;;;;;0.00;0.00;;;;;;;18.41;62.90;99825.34;5031302;28;20079;-67
2023/10/31 02:13:17;;;;;;;0.00;0.00;;;;;;;18.54;60.22;99827.28;5032373;28;20496;-67
2023/10/31 02:15:43;;;;;;;0.00;0.00;;;;;;;18.18;62.44;99839.06;5031314;28;20025;-67
2023/10/31 02:18:09;;;;;;;0.37;0.37;;;;;;;17.55;65.44;99840.78;5044123;28;20045;-67
2023/10/31 02:20:35;;;;;;;0.00;0.00;;;;;;;17.75;64.53;99832.59;5030466;28;20029;-67
2023/10/31 02:23:02;;;;;;;0.00;0.00;;;;;;;17.99;62.51;99834.81;5011769;28;20052;-67
2023/10/31 02:25:27;;;;;;;0.00;0.00;;;;;;;17.83;63.14;99836.59;5030676;28;20100;-67
2023/10/31 02:27:53;;;;;;;0.00;0.00;;;;;;;18.29;62.73;99836.66;5014857;28;20484;-67
2023/10/31 02:30:18;;;;;;;0.10;0.10;;;;;;;19.11;59.60;99835.31;5013249;28;20517;-68
2023/10/31 02:32:44;;;;;;;0.00;0.00;;;;;;;18.67;59.59;99846.78;5030365;28;20025;-67
2023/10/31 02:35:10;;;;;;;0.00;0.00;;;;;;;17.84;65.58;99835.66;5015133;28;20564;-68
2023/10/31 02:37:35;;;;;;;0.10;0.10;;;;;;;17.85;67.35;99842.66;5020361;28;20244;-68
2023/10/31 02:40:00;;;;;;;0.00;0.00;;;;;;;17.49;66.43;99851.66;5053189;28;20024;-67
2023/10/31 02:42:26;;;;;;;0.00;0.00;;;;;;;16.41;73.03;99858.91;5036218;28;20388;-67
2023/10/31 02:44:52;;;;;;;0.33;0.33;;;;;;;17.45;68.59;99851.81;5032213;28;20028;-68
2023/10/31 02:47:18;;;;;;;0.00;0.00;;;;;;;17.87;68.12;99841.59;5018986;28;20035;-68
2023/10/31 02:49:43;;;;;;;0.20;0.20;;;;;;;17.78;66.40;99861.47;5016204;28;20123;-68
2023/10/31 02:52:09;;;;;;;0.00;0.00;;;;;;;17.62;65.84;99857.97;5015335;28;21043;-68
2023/10/31 02:54:34;;;;;;;0.00;0.00;;;;;;;17.54;67.93;99855.75;5024523;28;20426;-67
2023/10/31 02:56:59;;;;;;;0.00;0.00;;;;;;;17.46;67.00;99864.09;5034426;28;20029;-67
2023/10/31 02:59:25;;;;;;;0.00;0.00;;;;;;;17.70;68.20;99862.84;5035461;28;20029;-67
2023/10/31 03:01:50;;;;;;;0.00;0.00;;;;;;;17.85;67.67;99864.66;5035914;28;20369;-67
2023/10/31 03:04:15;;;;;;;0.00;0.00;;;;;;;17.65;67.61;99868.38;5034407;28;20447;-66
2023/10/31 03:06:41;;;;;;;0.00;0.00;;;;;;;17.36;67.43;99877.88;5014654;28;20017;-66
2023/10/31 03:09:07;;;;;;;0.00;0.00;;;;;;;17.66;66.95;99867.44;5016964;28;20025;-68
2023/10/31 03:11:32;;;;;;;0.00;0.00;;;;;;;17.25;69.84;99878.47;5031438;28;20092;-67
2023/10/31 03:13:58;;;;;;;0.00;0.00;;;;;;;17.76;66.91;99873.94;5016751;28;20037;-67
2023/10/31 03:16:24;;;;;;;0.00;0.00;;;;;;;17.38;64.31;99887.44;5015693;28;20060;-67
2023/10/31 03:18:50;;;;;;;0.00;0.00;;;;;;;17.26;67.16;99877.53;5032993;28;20108;-68
2023/10/31 03:21:15;;;;;;;0.00;0.00;;;;;;;16.41;69.37;99890.56;5015239;28;20017;-68
2023/10/31 03:23:48;;;;;;;0.00;0.00;;;;;;;17.06;67.13;99887.34;5015676;28;20033;-67
2023/10/31 03:26:14;;;;;;;1.03;1.03;;;;;;;18.01;62.70;99879.66;5012429;28;20607;-67
2023/10/31 03:28:39;;;;;;;0.00;0.00;;;;;;;18.26;59.99;99885.28;5014793;28;20029;-68
2023/10/31 03:31:04;;;;;;;0.00;0.00;;;;;;;18.06;60.22;99874.97;5015132;28;20021;-67
2023/10/31 03:33:30;;;;;;;0.00;0.00;;;;;;;18.35;60.76;99893.63;5014494;28;20389;-67
2023/10/31 03:35:55;;;;;;;0.00;0.00;;;;;;;18.87;59.02;99906.47;5014873;28;20017;-65
2023/10/31 03:38:20;;;;;;;0.00;0.00;;;;;;;17.99;60.14;99908.84;5032395;28;20067;-67
2023/10/31 03:40:46;;;;;;;0.00;0.00;;;;;;;17.58;63.25;99904.00;5032851;28;20022;-69
2023/10/31 03:43:11;;;;;;;0.00;0.00;;;;;;;18.26;60.05;99900.31;5030753;28;20473;-67
2023/10/31 03:45:36;;;;;;;0.00;0.00;;;;;;;17.99;60.13;99900.06;5013986;28;20017;-67
2023/10/31 03:48:02;;;;;;;0.00;0.00;;;;;;;18.65;59.50;99904.22;5029173;28;20059;-68
2023/10/31 03:50:28;;;;;;;0.00;0.00;;;;;;;18.30;59.57;99907.13;5032876;28;20523;-68
2023/10/31 03:52:53;;;;;;;0.00;0.00;;;;;;;18.38;58.20;99904.91;5014986;28;20029;-67
2023/10/31 03:55:19;;;;;;;0.00;0.00;;;;;;;18.50;57.20;99907.78;5014010;28;20033;-66
2023/10/31 03:57:45;;;;;;;0.00;0.00;;;;;;;18.78;56.53;99902.56;5014340;28;20021;-68
2023/10/31 04:00:11;;;;;;;0.00;0.00;;;;;;;18.09;58.78;99904.75;5014519;28;20504;-68
2023/10/31 04:02:39;;;;;;;0.00;0.00;;;;;;;18.64;57.18;99900.75;5030134;28;20430;-68
2023/10/31 04:05:04;;;;;;;0.00;0.00;;;;;;;17.84;60.37;99907.88;5014219;28;20116;-67
2023/10/31 04:07:30;;;;;;;0.00;0.00;;;;;;;18.49;59.52;99912.19;5031750;28;20159;-67
2023/10/31 04:09:56;;;;;;;26.87;1.10;;;;;;;18.66;57.26;99919.19;5013493;28;20555;-67
2023/10/31 04:12:21;;;;;;;0.00;0.00;;;;;;;18.68;58.07;99911.97;5014519;28;20017;-67
2023/10/31 04:14:47;;;;;;;0.00;0.00;;;;;;;19.12;56.40;99911.19;5014126;28;20366;-68
2023/10/31 04:17:12;;;;;;;0.00;0.00;;;;;;;18.31;57.61;99909.69;5017702;28;20404;-68
2023/10/31 04:19:37;;;;;;;0.00;0.00;;;;;;;18.36;58.42;99906.78;5050482;28;20047;-67
2023/10/31 04:22:03;;;;;;;0.00;0.00;;;;;;;18.20;59.43;99911.22;5032224;28;20111;-68
2023/10/31 04:24:29;;;;;;;0.00;0.00;;;;;;;17.81;61.65;99916.81;5034254;28;20515;-69
2023/10/31 04:26:54;;;;;;;0.00;0.00;;;;;;;17.64;62.46;99924.81;5032818;28;20025;-69
2023/10/31 04:29:19;;;;;;;0.00;0.00;;;;;;;17.70;61.13;99924.47;5032653;28;20116;-70
2023/10/31 04:31:45;;;;;;;0.00;0.00;;;;;;;17.29;62.74;99940.75;5032876;28;20423;-70
2023/10/31 04:34:10;;;;;;;0.00;0.00;;;;;;;17.26;62.74;99949.66;5032067;28;20029;-70
2023/10/31 04:36:36;;;;;;;0.10;0.10;;;;;;;18.40;58.95;99940.03;5049649;28;20032;-70
2023/10/31 04:39:01;;;;;;;0.00;0.00;;;;;;;18.50;58.60;99939.53;5032562;28;20393;-70
2023/10/31 04:41:27;;;;;;;0.10;0.10;;;;;;;18.92;58.28;99952.09;5033829;28;20060;-70
2023/10/31 04:43:52;;;;;;;0.00;0.00;;;;;;;18.38;58.53;99936.66;5050925;28;20028;-70
2023/10/31 04:46:17;;;;;;;0.00;0.00;;;;;;;18.16;60.41;99952.00;5051395;28;20155;-70
2023/10/31 04:48:43;;;;;;;0.00;0.00;;;;;;;17.49;61.16;99952.91;5033056;28;20033;-70
2023/10/31 04:51:08;;;;;;;0.23;0.23;;;;;;;18.11;60.26;99955.75;5050766;28;20025;-70
2023/10/31 04:53:34;;;;;;;0.00;0.00;;;;;;;18.06;59.73;99952.50;5029904;28;20075;-70
2023/10/31 04:56:00;;;;;;;0.00;0.00;;;;;;;18.27;57.77;99954.91;5030953;28;20033;-70
2023/10/31 04:58:26;;;;;;;0.00;0.00;;;;;;;18.01;58.67;99964.28;5014102;28;20032;-70
2023/10/31 05:00:51;;;;;;;0.00;0.00;;;;;;;17.84;59.83;99965.19;5032985;28;20067;-70
2023/10/31 05:03:17;;;;;;;0.00;0.00;;;;;;;17.54;60.50;99966.72;5051216;28;20102;-70
2023/10/31 05:05:43;;;;;;;0.00;0.00;;;;;;;17.32;61.05;99974.91;5051106;28;20032;-71
2023/10/31 05:08:08;;;;;;;0.30;0.30;;;;;;;17.53;60.60;99974.72;5033274;28;20033;-70
2023/10/31 05:10:34;;;;;;;0.00;0.00;;;;;;;17.66;60.22;99974.94;5049797;28;20032;-69
2023/10/31 05:13:02;;;;;;;0.00;0.00;;;;;;;17.79;58.93;99979.50;5049943;28;20167;-70
2023/10/31 05:15:27;;;;;;;0.00;0.00;;;;;;;18.09;59.29;99986.72;5033850;28;20142;-71
2023/10/31 05:17:52;;;;;;;0.20;0.20;;;;;;;17.62;59.78;99985.66;5037446;28;20467;-70
2023/10/31 05:20:18;;;;;;;0.00;0.00;;;;;;;18.04;60.41;99990.53;5011408;28;20029;-69
2023/10/31 05:22:43;;;;;;;0.00;0.00;;;;;;;17.73;59.82;99987.72;5011963;28;20044;-70
2023/10/31 05:25:09;;;;;;;0.00;0.00;;;;;;;16.68;64.62;99995.66;5009366;28;20038;-70
2023/10/31 05:27:34;;;;;;;0.00;0.00;;;;;;;17.33;62.26;99995.09;5000316;28;20112;-70
2023/10/31 05:30:00;;;;;;;0.00;0.00;;;;;;;17.08;62.40;99996.34;5011062;28;20025;-70
2023/10/31 05:32:25;;;;;;;0.00;0.00;;;;;;;17.18;60.37;99995.91;5012381;28;20393;-71
2023/10/31 05:34:50;;;;;;;0.00;0.00;;;;;;;16.93;63.12;100007.69;5011672;28;20072;-71
2023/10/31 05:37:16;;;;;;;0.00;0.00;;;;;;;17.37;63.13;100007.22;5013139;28;20025;-70
2023/10/31 05:39:41;;;;;;;0.00;0.00;;;;;;;17.77;62.00;99999.84;5013265;28;20040;-70
2023/10/31 05:42:07;;;;;;;0.00;0.00;;;;;;;17.61;61.23;100015.69;5030821;28;20823;-70
2023/10/31 05:44:32;;;;;;;0.00;0.00;;;;;;;17.00;63.77;100014.38;5011078;28;20057;-70
2023/10/31 05:46:57;;;;;;;0.00;0.00;;;;;;;17.32;64.17;100011.88;5008837;28;20031;-70
2023/10/31 05:49:23;;;;;;;0.00;0.00;;;;;;;16.54;66.69;100021.84;5030621;28;20479;-70
2023/10/31 05:51:52;;;;;;;0.10;0.10;;;;;;;17.15;65.52;100025.09;5030790;28;20065;-70
2023/10/31 05:54:17;;;;;;;0.00;0.00;;;;;;;17.24;64.56;100021.97;5029677;28;20033;-69
2023/10/31 05:56:44;;;;;;;0.00;0.00;;;;;;;17.52;64.12;100017.94;5013346;28;20052;-70
2023/10/31 05:59:10;;;;;;;0.00;0.00;;;;;;;17.35;64.68;100019.66;5030575;28;20028;-70
2023/10/31 06:01:35;;;;;;;0.00;0.00;;;;;;;16.86;65.69;100020.31;5011783;28;20045;-71
2023/10/31 06:04:00;;;;;;;0.00;0.00;;;;;;;16.84;65.12;100013.38;5013090;28;20033;-71
2023/10/31 06:06:26;;;;;;;0.00;0.00;;;;;;;17.56;62.85;100022.13;5011417;28;20115;-70
2023/10/31 06:08:51;;;;;;;0.37;0.37;;;;;;;17.35;64.16;100019.66;5013216;28;20032;-70
2023/10/31 06:11:17;;;;;;;0.00;0.00;;;;;;;17.12;64.46;100029.59;5033597;28;20142;-70
2023/10/31 06:13:42;;;;;;;0.00;0.00;;;;;;;17.78;64.25;100030.63;5017133;28;20400;-71
2023/10/31 06:16:08;;;;;;;0.00;0.00;;;;;;;17.24;64.23;100032.53;5016480;28;20366;-70
2023/10/31 06:18:33;;;;;;;0.00;0.00;;;;;;;17.35;64.25;100040.81;5035191;28;20215;-70
2023/10/31 06:20:59;;;;;;;0.00;0.00;;;;;;;16.73;65.85;100041.16;5034750;28;20385;-70
2023/10/31 06:23:25;;;;;;;0.00;0.00;;;;;;;16.90;66.07;100044.81;5042150;28;20030;-70
2023/10/31 06:25:50;;;;;;;0.00;0.00;;;;;;;17.33;64.00;100042.66;5013353;28;20041;-71
2023/10/31 06:28:15;;;;;;;0.00;0.00;;;;;;;18.42;58.42;100037.84;5029683;28;20029;-70
2023/10/31 06:30:41;;;;;;;0.00;0.00;;;;;;;17.95;61.21;100040.34;5019862;28;20111;-71
2023/10/31 06:33:08;;;;;;;0.00;0.00;;;;;;;19.06;56.03;100046.63;5034350;28;20036;-71
2023/10/31 06:35:33;;;;;;;0.00;0.00;;;;;;;17.45;61.07;100051.75;5010885;28;20052;-71
2023/10/31 06:37:59;;;;;;;0.00;0.00;;;;;;;18.54;57.30;100057.50;5030240;28;20472;-70
2023/10/31 06:40:25;;;;;;;0.00;0.00;;;;;;;17.38;59.89;100064.41;5034137;28;20035;-71
2023/10/31 06:42:50;;;;;;;0.00;0.00;;;;;;;17.02;62.82;100061.81;5033643;28;20445;-70
2023/10/31 06:45:16;;;;;;;0.27;0.27;;;;;;;17.74;60.76;100063.44;5021035;28;20437;-71
2023/10/31 06:47:41;;;;;;;0.00;0.00;;;;;;;18.26;57.97;100064.31;5016281;28;20049;-71
2023/10/31 06:50:07;;;;;;;0.00;0.00;;;;;;;17.21;61.60;100065.25;5031709;28;20048;-70
2023/10/31 06:52:33;;;;;;;0.00;0.00;;;;;;;17.09;63.85;100063.22;5014791;28;20031;-70
2023/10/31 06:54:58;;;;;;;0.00;0.00;;;;;;;16.21;65.35;100080.50;5015764;28;20029;-70
2023/10/31 06:57:23;;;;;;;0.00;0.00;;;;;;;16.18;67.67;100081.50;5017746;28;20037;-71
2023/10/31 06:59:49;;;;;;;0.00;0.00;;;;;;;16.29;68.34;100081.00;5010721;28;20040;-71
2023/10/31 07:02:14;;;;;;;0.10;0.10;;;;;;;17.47;63.54;100086.84;5011494;28;20040;-71
2023/10/31 07:04:40;;;;;;;0.00;0.00;;;;;;;16.79;64.52;100093.63;5031755;28;20439;-71
2023/10/31 07:07:05;;;;;;;0.00;0.00;;;;;;;16.68;66.39;100102.97;5031563;28;20017;-71
2023/10/31 07:09:31;;;;;;;0.30;0.30;;;;;;;17.63;62.08;100098.34;5015809;28;20027;-71
2023/10/31 07:11:56;;;;;;;0.00;0.00;;;;;;;17.74;62.25;100103.09;5014124;28;20565;-71
2023/10/31 07:14:21;;;;;;;0.00;0.00;;;;;;;17.37;64.80;100097.03;5017548;28;20033;-71
2023/10/31 07:16:48;;;;;;;0.00;0.00;;;;;;;17.31;63.46;100097.34;5053250;28;20492;-70
2023/10/31 07:19:14;;;;;;;0.00;0.00;;;;;;;16.83;66.98;100111.94;5016094;28;20314;-70
2023/10/31 07:21:40;;;;;;;0.00;0.00;;;;;;;16.52;68.29;100105.50;5009611;28;20029;-68
2023/10/31 07:24:08;;;;;;;0.00;0.00;;;;;;;17.17;67.18;100107.72;5023176;28;20374;-68
2023/10/31 07:26:34;;;;;;;0.00;0.00;;;;;;;17.16;66.60;100119.22;5013696;28;20026;-68
2023/10/31 07:28:59;;;;;;;0.00;0.00;;;;;;;17.14;68.28;100116.66;5014703;28;20538;-68
2023/10/31 07:31:25;;;;;;;0.00;0.00;;;;;;;17.43;66.15;100112.59;5031322;28;20017;-69
2023/10/31 07:33:50;;;;;;;0.00;0.00;;;;;;;17.84;63.43;100115.84;5014262;28;20032;-69
2023/10/31 07:36:15;;;;;;;3.73;0.63;;;;;;;17.70;62.96;100112.09;5014470;28;20053;-69
2023/10/31 07:38:41;;;;;;;0.00;0.00;;;;;;;19.14;59.50;100115.88;5014345;28;20028;-68
2023/10/31 07:41:07;;;;;;;0.10;0.10;;;;;;;18.76;59.61;100124.16;5031983;28;20381;-69
2023/10/31 07:43:32;;;;;;;0.00;0.00;;;;;;;18.20;60.99;100128.09;5032779;28;20021;-69
2023/10/31 07:45:57;;;;;;;0.00;0.00;;;;;;;17.23;68.18;100131.22;5013786;28;20448;-68
2023/10/31 07:48:23;;;;;;;0.00;0.00;;;;;;;17.76;64.13;100132.97;5015054;28;20304;-69
2023/10/31 07:50:48;;;;;;;0.00;0.00;;;;;;;18.53;62.09;100130.72;5014910;28;20030;-69
2023/10/31 07:53:14;;;;;;;0.63;0.63;;;;;;;18.43;61.68;100125.06;5013585;28;20030;-69
2023/10/31 07:55:39;;;;;;;0.00;0.00;;;;;;;18.56;60.06;100124.41;5031371;28;20358;-69
2023/10/31 07:58:04;;;;;;;0.00;0.00;;;;;;;18.08;62.38;100127.81;5014457;28;20025;-69
2023/10/31 08:00:30;;;;;;;0.00;0.00;;;;;;;17.99;62.21;100130.94;5031898;28;20512;-69
2023/10/31 08:02:56;;;;;;;0.00;0.00;;;;;;;18.69;61.13;100125.44;5013821;28;20028;-67
2023/10/31 08:05:21;;;;;;;0.00;0.00;;;;;;;18.74;60.35;100123.41;5014766;28;20025;-69
2023/10/31 08:07:47;;;;;;;0.00;0.00;;;;;;;18.28;62.59;100126.75;5013925;28;20107;-68
2023/10/31 08:10:13;;;;;;;0.00;0.00;;;;;;;18.25;62.82;100131.34;5030691;28;20025;-68
2023/10/31 08:12:38;;;;;;;1.40;0.23;;;;;;;18.06;62.08;100131.47;5014511;28;20051;-71
2023/10/31 08:15:04;;;;;;;0.20;0.20;;;;;;;19.11;60.01;100131.97;5013379;28;20021;-71
2023/10/31 08:17:30;;;;;;;0.00;0.00;;;;;;;18.25;63.21;100131.34;5041936;28;20037;-71
2023/10/31 08:19:56;;;;;;;0.00;0.00;;;;;;;18.06;63.11;100134.97;5033960;28;20056;-71
2023/10/31 08:22:21;;;;;;;1.73;1.60;;;;;;;17.81;64.43;100138.00;5033370;28;20031;-71
2023/10/31 08:24:46;;;;;;;0.63;0.63;;;;;;;18.30;62.79;100135.47;5034247;28;20071;-71
2023/10/31 08:27:12;;;;;;;0.00;0.00;;;;;;;17.66;65.90;100144.06;5051719;28;20023;-70
2023/10/31 08:29:38;;;;;;;0.00;0.00;;;;;;;18.37;62.63;100138.63;5051113;28;20477;-71
2023/10/31 08:32:04;;;;;;;0.00;0.00;;;;;;;18.58;62.51;100149.00;5033199;28;20028;-70
2023/10/31 08:34:29;;;;;;;0.00;0.00;;;;;;;18.53;61.76;100156.31;5033953;28;20388;-71
2023/10/31 08:36:56;;;;;;;0.00;0.00;;;;;;;19.00;61.15;100155.56;5050631;28;20036;-70
2023/10/31 08:39:22;;;;;;;0.00;0.00;;;;;;;17.86;67.01;100153.59;5033801;28;20025;-71
2023/10/31 08:41:51;;;;;;;0.20;0.13;;;;;;;17.94;65.43;100159.38;5033920;28;20036;-71
2023/10/31 08:44:17;;;;;;;0.53;0.50;;;;;;;17.93;66.05;100160.34;5050582;28;20126;-70
2023/10/31 08:46:43;;;;;;;0.00;0.00;;;;;;;18.16;65.95;100172.34;5033551;28;20115;-71
2023/10/31 08:49:08;;;;;;;1.43;1.33;;;;;;;18.63;64.94;100162.84;5032672;28;20384;-71
2023/10/31 08:51:34;;;;;;;0.00;0.00;;;;;;;17.62;69.30;100169.78;5033700;28;20035;-71
2023/10/31 08:53:59;;;;;;;1.83;0.20;;;;;;;18.19;65.46;100173.97;5033075;28;20095;-71
2023/10/31 08:56:27;;;;;;;0.00;0.00;;;;;;;18.21;66.35;100172.13;5032803;28;20025;-71
2023/10/31 08:58:52;;;;;;;0.00;0.00;;;;;;;19.12;63.88;100176.06;5051147;28;20029;-71
2023/10/31 09:01:18;;;;;;;0.03;0.03;;;;;;;18.50;66.65;100178.50;5033158;28;20365;-71
2023/10/31 09:03:44;;;;;;;0.00;0.00;;;;;;;19.02;64.13;100185.44;5050709;28;20516;-71
2023/10/31 09:06:10;;;;;;;0.10;0.10;;;;;;;19.92;62.46;100180.34;5033064;28;20084;-69
2023/10/31 09:08:36;;;;;;;0.00;0.00;;;;;;;19.17;62.03;100193.47;5051114;28;20021;-70
2023/10/31 09:11:03;;;;;;;0.00;0.00;;;;;;;18.67;64.27;100190.84;5032356;28;20023;-71
2023/10/31 09:13:28;;;;;;;0.43;0.43;;;;;;;18.61;64.95;100188.53;5033213;28;20017;-71
2023/10/31 09:15:55;;;;;;;1.50;0.10;;;;;;;19.77;59.28;100190.91;5051377;28;20522;-70
2023/10/31 09:18:20;;;;;;;0.00;0.00;;;;;;;19.17;63.19;100199.63;5032488;28;20076;-71
2023/10/31 09:20:46;;;;;;;0.00;0.00;;;;;;;18.89;63.08;100197.63;5051142;28;20044;-70
2023/10/31 09:23:11;;;;;;;1.15;1.08;;;;;;;19.53;61.30;100202.94;5032400;28;20118;-70
2023/10/31 09:25:36;;;;;;;0.10;0.10;;;;;;;19.73;58.39;100202.63;5032455;28;20075;-71
2023/10/31 09:28:02;;;;;;;0.05;0.05;;;;;;;19.49;59.65;100208.41;5050481;28;20110;-70
2023/10/31 09:30:27;;;;;;;0.00;0.00;;;;;;;20.05;57.34;100210.50;5033129;28;20021;-70
2023/10/31 09:32:53;;;;;;;0.22;0.22;;;;;;;19.74;58.07;100214.06;5032358;28;20403;-70
2023/10/31 09:35:18;;;;;;;0.00;0.00;;;;;;;20.04;58.21;100213.25;5050405;28;20025;-70
2023/10/31 09:37:45;;;;;;;0.10;0.10;;;;;;;19.82;55.44;100217.16;5033360;28;20025;-69
2023/10/31 09:40:10;;;;;;;0.00;0.00;;;;;;;20.30;55.83;100222.31;5049799;28;20032;-71
2023/10/31 09:42:36;;;;;;;0.08;0.08;;;;;;;19.71;57.53;100225.72;5029701;28;20073;-71
2023/10/31 09:45:02;;;;;;;0.00;0.00;;;;;;;19.91;55.77;100215.78;5034060;28;20075;-70
2023/10/31 09:47:30;;;;;;;0.10;0.10;;;;;;;20.47;54.37;100224.78;5035993;28;20027;-70
2023/10/31 09:49:55;;;;;;;0.00;0.00;;;;;;;19.84;55.07;100215.28;5054433;28;20496;-70
2023/10/31 09:52:22;;;;;;;0.00;0.00;;;;;;;20.92;52.32;100229.16;5036205;28;20058;-70
2023/10/31 09:54:49;;;;;;;0.00;0.00;;;;;;;20.03;56.32;100219.50;5054829;28;20028;-71
2023/10/31 09:57:16;;;;;;;0.00;0.00;;;;;;;18.71;59.63;100229.47;5052786;28;20024;-70
2023/10/31 09:59:42;;;;;;;0.00;0.00;;;;;;;19.02;61.52;100238.41;5054061;28;20384;-70
2023/10/31 10:02:07;;;;;;;0.55;0.55;;;;;;;19.47;59.04;100231.47;5053797;28;20071;-71
2023/10/31 10:04:33;;;;;;;0.20;0.20;;;;;;;19.52;61.50;100238.31;5054564;28;20045;-70
2023/10/31 10:06:59;;;;;;;0.00;0.00;;;;;;;20.13;58.78;100240.09;5035491;28;20385;-70
2023/10/31 10:09:25;;;;;;;0.45;0.45;;;;;;;20.22;58.26;100243.13;5036740;28;20024;-70
2023/10/31 10:11:52;;;;;;;0.45;0.45;;;;;;;20.56;57.25;100251.72;5053044;28;20070;-71
2023/10/31 10:14:17;;;;;;;1.35;0.85;;;;;;;19.74;59.26;100257.38;5053154;28;20064;-70
2023/10/31 10:16:43;;;;;;;0.00;0.00;;;;;;;18.90;62.90;100262.91;5036304;28;20083;-70
2023/10/31 10:19:16;;;;;;;0.00;0.00;;;;;;;18.63;63.47;100258.13;5035743;28;20491;-70
2023/10/31 10:21:56;;;;;;;0.00;0.00;;;;;;;18.48;66.88;100268.56;5035746;28;20055;-71
2023/10/31 10:24:24;;;;;;;3.13;0.95;;;;;;;18.15;66.68;100268.50;5036252;28;20396;-70
2023/10/31 10:26:51;;;;;;;0.03;0.03;;;;;;;18.96;63.19;100271.38;5054342;28;20096;-71
2023/10/31 10:29:16;;;;;;;0.00;0.00;;;;;;;19.61;61.53;100272.25;5035062;28;20040;-71
2023/10/31 10:31:43;;;;;;;0.00;0.00;;;;;;;19.88;60.52;100279.59;5036340;28;20029;-71
2023/10/31 10:34:09;;;;;;;0.00;0.00;;;;;;;19.83;59.49;100282.53;5052035;28;20029;-70
2023/10/31 10:36:35;;;;;;;0.08;0.08;;;;;;;19.83;60.32;100290.47;5053643;28;20075;-70
2023/10/31 10:39:00;;;;;;;0.10;0.10;;;;;;;19.40;61.28;100285.78;5053484;28;20029;-71
2023/10/31 10:41:27;;;;;;;0.00;0.00;;;;;;;18.64;65.73;100286.28;5035624;28;20024;-70
2023/10/31 10:44:03;;;;;;;0.00;0.00;;;;;;;18.47;67.76;100285.38;5052615;28;20020;-70
2023/10/31 10:46:33;;;;;;;0.28;0.28;;;;;;;19.22;64.86;100285.00;5052571;28;20027;-69
2023/10/31 10:49:03;;;;;;;0.00;0.00;;;;;;;18.86;65.44;100290.44;5034711;28;20365;-70
2023/10/31 10:51:41;;;;;;;0.00;0.00;;;;;;;19.11;66.22;100290.88;5053789;28;20530;-70
2023/10/31 10:54:18;;;;;;;0.22;0.22;;;;;;;19.14;64.57;100296.00;5053151;28;20032;-70
2023/10/31 10:56:55;;;;;;;3.10;1.55;;;;;;;19.45;64.80;100294.34;5034612;28;20476;-70
2023/10/31 10:59:24;;;;;;;0.00;0.00;;;;;;;18.78;66.56;100294.38;5053811;28;20078;-68
2023/10/31 11:01:50;;;;;;;1.45;0.40;;;;;;;18.47;68.88;100288.00;5035558;28;20082;-70
2023/10/31 11:04:16;;;;;;;0.00;0.00;;;;;;;18.48;68.44;100295.03;5051192;28;20416;-71
2023/10/31 11:06:42;;;;;;;0.30;0.30;;;;;;;18.80;68.46;100300.41;5035505;28;20025;-70
2023/10/31 11:09:10;;;;;;;0.57;0.57;;;;;;;19.41;65.08;100291.91;5034992;28;20048;-70
2023/10/31 11:11:37;;;;;;;2.85;1.45;;;;;;;18.63;68.63;100300.47;5034440;28;20024;-70
2023/10/31 11:14:03;;;;;;;1.45;1.02;;;;;;;18.52;68.72;100306.31;5034852;28;20029;-70
2023/10/31 11:16:43;;;;;;;1.30;1.25;;;;;;;19.03;66.16;100308.09;5052823;28;20074;-70
2023/10/31 11:19:09;;;;;;;0.00;0.00;;;;;;;18.00;69.25;100307.16;5034973;28;20036;-70
2023/10/31 11:21:35;;;;;;;1.95;0.43;;;;;;;18.46;69.14;100315.44;5053130;28;20476;-70
2023/10/31 11:24:01;;;;;;;1.02;0.70;;;;;;;19.00;67.62;100309.16;5050381;28;20032;-69